createdAt,value
2024-02-08T00:02:04.001Z,3.80
2024-02-08T00:04:32.901Z,3.73
2024-02-08T00:07:00.757Z,4.23
2024-02-08T00:09:28.680Z,3.80
2024-02-08T00:11:56.416Z,3.80
2024-02-08T00:14:25.028Z,4.60
2024-02-08T00:16:53.622Z,4.33
2024-02-08T00:19:22.964Z,4.50
2024-02-08T00:21:51.341Z,4.17
2024-02-08T00:24:20.282Z,4.17
2024-02-08T00:26:48.325Z,4.33
2024-02-08T00:29:16.073Z,3.50
2024-02-08T00:31:44.286Z,4.23
2024-02-08T00:34:12.439Z,4.20
2024-02-08T00:36:41.581Z,4.30
2024-02-08T00:39:09.362Z,3.90
2024-02-08T00:41:37.687Z,4.47
2024-02-08T00:44:05.792Z,4.70
2024-02-08T00:46:33.632Z,4.47
2024-02-08T00:49:01.467Z,4.87
2024-02-08T00:51:32.422Z,4.90
2024-02-08T00:54:01.571Z,4.53
2024-02-08T00:56:29.317Z,3.83
2024-02-08T00:58:57.073Z,4.47
2024-02-08T01:01:24.983Z,4.63
2024-02-08T01:03:52.788Z,4.30
2024-02-08T01:06:20.556Z,4.13
2024-02-08T01:08:48.548Z,4.77
2024-02-08T01:11:17.787Z,4.30
2024-02-08T01:13:45.654Z,4.97
2024-02-08T01:16:13.488Z,4.00
2024-02-08T01:18:42.650Z,4.40
2024-02-08T01:21:11.389Z,4.20
2024-02-08T01:23:39.855Z,4.10
2024-02-08T01:26:10.193Z,4.40
2024-02-08T01:28:41.388Z,4.03
2024-02-08T01:31:09.301Z,4.83
2024-02-08T01:33:38.369Z,4.13
2024-02-08T01:36:06.876Z,5.43
2024-02-08T01:38:34.607Z,4.40
2024-02-08T01:41:02.538Z,4.80
2024-02-08T01:43:34.847Z,4.40
2024-02-08T01:46:04.487Z,4.97
2024-02-08T01:48:32.456Z,5.00
2024-02-08T01:51:05.811Z,4.90
2024-02-08T01:53:33.595Z,4.97
2024-02-08T01:56:03.720Z,5.80
2024-02-08T01:58:33.222Z,4.73
2024-02-08T02:01:02.373Z,5.40
2024-02-08T02:03:33.004Z,5.43
2024-02-08T02:06:01.660Z,4.87
2024-02-08T02:08:29.545Z,5.20
2024-02-08T02:11:08.124Z,5.70
2024-02-08T02:13:38.245Z,5.80
2024-02-08T02:16:06.568Z,5.33
2024-02-08T02:18:37.307Z,5.90
2024-02-08T02:21:05.310Z,5.57
2024-02-08T02:23:34.553Z,5.83
2024-02-08T02:26:02.415Z,6.67
2024-02-08T02:28:30.562Z,8.07
2024-02-08T02:30:59.160Z,7.50
2024-02-08T02:33:27.555Z,8.40
2024-02-08T02:35:56.585Z,10.53
2024-02-08T02:38:25.444Z,9.90
2024-02-08T02:40:54.811Z,9.37
2024-02-08T02:43:27.671Z,11.90
2024-02-08T02:45:56.639Z,10.43
2024-02-08T02:48:26.171Z,10.77
2024-02-08T02:50:54.159Z,12.23
2024-02-08T02:53:21.905Z,12.03
2024-02-08T02:55:50.249Z,16.17
2024-02-08T02:58:19.390Z,15.77
2024-02-08T03:00:47.480Z,15.00
2024-02-08T03:03:16.931Z,10.63
2024-02-08T03:05:47.415Z,13.80
2024-02-08T03:08:17.681Z,11.93
2024-02-08T03:10:45.905Z,14.50
2024-02-08T03:13:13.802Z,12.83
2024-02-08T03:15:44.574Z,13.17
2024-02-08T03:18:15.555Z,12.00
2024-02-08T03:20:46.650Z,14.17
2024-02-08T03:23:14.695Z,15.87
2024-02-08T03:25:42.604Z,14.60
2024-02-08T03:28:11.882Z,18.83
2024-02-08T03:30:41.211Z,15.27
2024-02-08T03:33:16.957Z,14.90
2024-02-08T03:35:47.711Z,15.73
2024-02-08T03:38:16.466Z,14.93
2024-02-08T03:40:44.510Z,14.80
2024-02-08T03:43:12.344Z,13.27
2024-02-08T03:45:41.618Z,13.23
2024-02-08T03:48:12.237Z,14.67
2024-02-08T03:50:40.589Z,13.87
2024-02-08T03:53:13.727Z,15.77
2024-02-08T03:55:45.299Z,14.27
2024-02-08T03:58:15.885Z,15.67
2024-02-08T04:00:47.402Z,14.27
2024-02-08T04:03:34.869Z,13.50
2024-02-08T04:06:05.178Z,14.37
2024-02-08T04:08:50.080Z,12.77
2024-02-08T04:11:35.332Z,13.70
2024-02-08T04:14:20.798Z,15.33
2024-02-08T04:17:06.450Z,13.30
2024-02-08T04:19:53.366Z,12.60
2024-02-08T04:22:39.019Z,13.60
2024-02-08T04:25:24.993Z,13.63
2024-02-08T04:28:10.366Z,12.80
2024-02-08T04:30:55.813Z,15.87
2024-02-08T04:33:41.595Z,13.13
2024-02-08T04:36:31.476Z,16.23
2024-02-08T04:39:17.124Z,14.43
2024-02-08T04:42:02.558Z,15.93
2024-02-08T04:44:48.132Z,14.00
2024-02-08T04:47:33.696Z,15.97
2024-02-08T04:50:27.618Z,17.23
2024-02-08T04:53:14.546Z,19.27
2024-02-08T04:55:42.523Z,14.13
2024-02-08T04:58:36.048Z,15.40
2024-02-08T05:00:58.092Z,16.13
2024-02-08T05:03:26.152Z,16.53
2024-02-08T05:05:55.473Z,17.17
2024-02-08T05:08:26.154Z,15.70
2024-02-08T05:10:54.199Z,23.17
2024-02-08T05:13:25.478Z,24.53
2024-02-08T05:15:54.060Z,21.37
2024-02-08T05:18:23.443Z,15.90
2024-02-08T05:20:51.299Z,17.67
2024-02-08T05:23:19.264Z,16.30
2024-02-08T05:25:49.431Z,15.90
2024-02-08T05:28:17.308Z,15.93
2024-02-08T05:30:45.115Z,15.97
2024-02-08T05:33:16.819Z,14.87
2024-02-08T05:35:46.316Z,15.27
2024-02-08T05:38:17.124Z,15.23
2024-02-08T05:40:45.062Z,14.93
2024-02-08T05:43:17.343Z,14.40
2024-02-08T05:45:45.391Z,15.00
2024-02-08T05:48:14.958Z,15.73
2024-02-08T05:50:45.704Z,14.50
2024-02-08T05:53:16.885Z,15.83
2024-02-08T05:55:49.147Z,15.07
2024-02-08T05:58:20.369Z,15.67
2024-02-08T06:00:54.585Z,16.43
2024-02-08T06:03:29.879Z,19.60
2024-02-08T06:06:08.016Z,16.77
2024-02-08T06:08:41.174Z,15.03
2024-02-08T06:11:17.632Z,17.50
2024-02-08T06:13:52.136Z,18.33
2024-02-08T06:16:28.776Z,17.70
2024-02-08T06:18:59.122Z,19.93
2024-02-08T06:21:40.296Z,15.67
2024-02-08T06:24:31.022Z,16.53
2024-02-08T06:27:00.037Z,14.97
2024-02-08T06:29:39.832Z,16.30
2024-02-08T06:32:24.757Z,14.50
2024-02-08T06:34:57.155Z,17.87
2024-02-08T06:37:28.129Z,16.23
2024-02-08T06:39:58.810Z,23.03
2024-02-08T06:43:05.662Z,20.37
2024-02-08T06:45:54.687Z,16.07
2024-02-08T06:48:52.999Z,21.33
2024-02-08T06:51:38.345Z,15.77
2024-02-08T06:54:24.172Z,19.00
2024-02-08T06:57:09.721Z,20.37
2024-02-08T06:59:55.978Z,17.37
2024-02-08T07:02:42.840Z,17.63
2024-02-08T07:05:28.393Z,16.37
2024-02-08T07:08:14.241Z,16.20
2024-02-08T07:10:59.613Z,16.63
2024-02-08T07:13:59.625Z,17.47
2024-02-08T07:16:44.918Z,20.87
2024-02-08T07:19:31.693Z,17.80
2024-02-08T07:22:17.373Z,16.07
2024-02-08T07:25:03.994Z,22.27
2024-02-08T07:27:49.917Z,20.53
2024-02-08T07:30:35.584Z,22.10
2024-02-08T07:33:21.321Z,19.37
2024-02-08T07:36:08.080Z,17.67
2024-02-08T07:38:53.651Z,17.97
2024-02-08T07:41:22.220Z,17.80
2024-02-08T07:43:56.032Z,17.17
2024-02-08T07:46:31.199Z,22.57
2024-02-08T07:49:06.320Z,17.37
2024-02-08T07:51:36.099Z,17.73
2024-02-08T07:54:11.701Z,17.63
2024-02-08T07:56:47.705Z,23.30
2024-02-08T07:59:18.005Z,18.43
2024-02-08T08:01:51.365Z,21.93
2024-02-08T08:04:43.678Z,22.93
2024-02-08T08:07:13.934Z,30.40
2024-02-08T08:09:42.547Z,23.23
2024-02-08T08:12:10.536Z,27.27
2024-02-08T08:14:56.089Z,25.90
2024-02-08T08:17:41.890Z,24.73
2024-02-08T08:20:37.863Z,24.47
2024-02-08T08:23:09.336Z,27.67
2024-02-08T08:26:01.623Z,24.87
2024-02-08T08:28:32.016Z,22.80
2024-02-08T08:31:18.328Z,26.43
2024-02-08T08:34:01.361Z,27.47
2024-02-08T08:36:36.005Z,28.17
2024-02-08T08:39:25.482Z,23.70
2024-02-08T08:41:55.457Z,24.17
2024-02-08T08:44:31.482Z,24.20
2024-02-08T08:47:02.225Z,22.30
2024-02-08T08:49:30.812Z,26.30
2024-02-08T08:52:05.723Z,25.80
2024-02-08T08:54:37.540Z,26.10
2024-02-08T08:57:13.514Z,27.23
2024-02-08T08:59:43.938Z,24.00
2024-02-08T09:02:12.115Z,23.87
2024-02-08T09:04:42.096Z,23.53
2024-02-08T09:07:13.372Z,23.97
2024-02-08T09:10:02.382Z,25.97
2024-02-08T09:12:37.437Z,24.43
2024-02-08T09:15:20.064Z,22.53
2024-02-08T09:17:53.872Z,21.83
2024-02-08T09:20:24.259Z,22.27
2024-02-08T09:22:53.583Z,23.27
2024-02-08T09:25:31.693Z,21.47
2024-02-08T09:28:25.306Z,21.67
2024-02-08T09:30:58.995Z,21.83
2024-02-08T09:33:37.070Z,24.83
2024-02-08T09:36:05.607Z,26.23
2024-02-08T09:38:44.794Z,24.30
2024-02-08T09:41:17.373Z,25.17
2024-02-08T09:43:47.565Z,24.17
2024-02-08T09:46:38.965Z,23.20
2024-02-08T09:49:15.106Z,21.07
2024-02-08T09:51:53.522Z,21.77
2024-02-08T09:54:28.806Z,23.20
2024-02-08T09:57:03.428Z,21.60
2024-02-08T09:59:58.167Z,22.87
2024-02-08T10:02:33.578Z,23.20
2024-02-08T10:05:20.575Z,23.77
2024-02-08T10:08:06.404Z,24.07
2024-02-08T10:10:44.864Z,23.87
2024-02-08T10:13:28.682Z,22.80
2024-02-08T10:15:57.370Z,23.90
2024-02-08T10:18:35.338Z,24.57
2024-02-08T10:21:14.481Z,22.97
2024-02-08T10:23:59.943Z,23.97
2024-02-08T10:26:28.770Z,24.67
2024-02-08T10:28:59.294Z,24.60
2024-02-08T10:31:27.371Z,23.67
2024-02-08T10:34:10.694Z,24.30
2024-02-08T10:36:41.045Z,24.67
2024-02-08T10:39:25.282Z,22.93
2024-02-08T10:42:00.099Z,23.50
2024-02-08T10:44:34.694Z,24.10
2024-02-08T10:47:10.575Z,22.83
2024-02-08T10:49:46.203Z,22.57
2024-02-08T10:52:17.809Z,22.20
2024-02-08T10:54:50.445Z,22.07
2024-02-08T10:57:36.944Z,22.27
2024-02-08T11:00:27.910Z,20.90
2024-02-08T11:03:01.911Z,21.47
2024-02-08T11:05:49.138Z,21.00
2024-02-08T11:08:26.432Z,22.87
2024-02-08T11:10:59.936Z,22.87
2024-02-08T11:13:31.474Z,24.23
2024-02-08T11:16:20.798Z,22.03
2024-02-08T11:18:52.780Z,21.63
2024-02-08T11:21:25.719Z,24.30
2024-02-08T11:23:54.294Z,23.20
2024-02-08T11:26:27.372Z,22.57
2024-02-08T11:29:06.288Z,22.07
2024-02-08T11:31:42.903Z,22.93
2024-02-08T11:34:15.000Z,24.30
2024-02-08T11:36:44.078Z,23.20
2024-02-08T11:39:32.860Z,22.50
2024-02-08T11:42:02.038Z,23.00
2024-02-08T11:44:37.855Z,23.43
2024-02-08T11:47:20.424Z,23.93
2024-02-08T11:49:56.104Z,22.20
2024-02-08T11:52:25.843Z,21.40
2024-02-08T11:55:07.036Z,23.43
2024-02-08T11:57:38.770Z,23.17
2024-02-08T12:00:16.663Z,23.63
2024-02-08T12:02:58.525Z,23.80
2024-02-08T12:05:28.337Z,23.70
2024-02-08T12:08:09.440Z,23.63
2024-02-08T12:10:39.222Z,22.20
2024-02-08T12:13:14.103Z,23.83
2024-02-08T12:15:46.075Z,25.33
2024-02-08T12:18:15.379Z,24.43
2024-02-08T12:20:45.123Z,21.07
2024-02-08T12:23:17.829Z,21.57
2024-02-08T12:25:45.670Z,20.90
2024-02-08T12:28:14.081Z,17.40
2024-02-08T12:30:43.295Z,18.30
2024-02-08T12:33:12.736Z,18.30
2024-02-08T12:35:43.023Z,17.90
2024-02-08T12:38:13.168Z,15.23
2024-02-08T12:40:45.238Z,11.97
2024-02-08T12:43:15.769Z,11.17
2024-02-08T12:45:43.726Z,11.23
2024-02-08T12:48:12.039Z,10.33
2024-02-08T12:50:42.086Z,9.90
2024-02-08T12:53:14.714Z,9.27
2024-02-08T12:55:43.198Z,8.30
2024-02-08T12:58:14.915Z,8.03
2024-02-08T13:00:46.489Z,12.80
2024-02-08T13:03:17.429Z,9.90
2024-02-08T13:05:46.667Z,8.87
2024-02-08T13:08:22.490Z,8.73
2024-02-08T13:10:56.793Z,8.30
2024-02-08T13:13:25.732Z,8.57
2024-02-08T13:16:00.229Z,8.07
2024-02-08T13:18:30.814Z,13.13
2024-02-08T13:21:00.574Z,12.57
2024-02-08T13:23:29.297Z,12.53
2024-02-08T13:25:58.590Z,12.67
2024-02-08T13:28:27.375Z,13.17
2024-02-08T13:30:57.358Z,12.63
2024-02-08T13:33:27.918Z,11.90
2024-02-08T13:35:55.820Z,12.53
2024-02-08T13:38:26.200Z,13.97
2024-02-08T13:41:00.560Z,11.97
2024-02-08T13:43:32.083Z,11.00
2024-02-08T13:46:02.427Z,11.77
2024-02-08T13:48:31.095Z,11.87
2024-02-08T13:51:07.216Z,11.23
2024-02-08T13:53:38.779Z,11.50
2024-02-08T13:56:12.826Z,17.43
2024-02-08T13:58:41.025Z,11.30
2024-02-08T14:01:08.996Z,10.90
2024-02-08T14:03:37.073Z,10.87
2024-02-08T14:06:10.356Z,11.33
2024-02-08T14:08:44.385Z,6.83
2024-02-08T14:11:17.473Z,5.53
2024-02-08T14:13:45.876Z,4.90
2024-02-08T14:16:17.377Z,7.03
2024-02-08T14:18:51.652Z,5.10
2024-02-08T14:21:26.070Z,6.80
2024-02-08T14:24:01.408Z,5.10
2024-02-08T14:26:38.094Z,6.37
2024-02-08T14:29:07.114Z,6.00
2024-02-08T14:31:38.828Z,6.97
2024-02-08T14:34:09.946Z,5.77
2024-02-08T14:36:43.356Z,5.43
2024-02-08T14:39:28.648Z,5.87
2024-02-08T14:41:57.366Z,5.77
2024-02-08T14:44:32.682Z,5.03
2024-02-08T14:47:01.201Z,4.47
2024-02-08T14:49:30.798Z,5.40
2024-02-08T14:52:04.446Z,4.40
2024-02-08T14:54:38.584Z,6.33
2024-02-08T14:57:11.098Z,4.47
2024-02-08T14:59:51.243Z,5.37
2024-02-08T15:02:24.208Z,5.13
2024-02-08T15:04:55.080Z,5.03
2024-02-08T15:07:41.470Z,6.80
2024-02-08T15:10:15.029Z,4.40
2024-02-08T15:12:53.119Z,4.30
2024-02-08T15:15:30.925Z,4.40
2024-02-08T15:18:12.555Z,4.53
2024-02-08T15:20:45.995Z,4.97
2024-02-08T15:23:32.615Z,4.63
2024-02-08T15:26:04.715Z,4.40
2024-02-08T15:28:36.644Z,4.70
2024-02-08T15:31:16.662Z,6.73
2024-02-08T15:34:08.892Z,6.00
2024-02-08T15:36:48.978Z,5.10
2024-02-08T15:39:28.356Z,4.53
2024-02-08T15:42:02.777Z,5.57
2024-02-08T15:44:36.483Z,4.40
2024-02-08T15:47:12.058Z,5.10
2024-02-08T15:49:40.022Z,5.60
2024-02-08T15:52:15.874Z,5.47
2024-02-08T15:54:45.488Z,6.07
2024-02-08T15:57:19.997Z,5.20
2024-02-08T15:59:47.987Z,5.00
2024-02-08T16:02:18.677Z,5.10
2024-02-08T16:04:51.920Z,4.70
2024-02-08T16:07:28.550Z,5.37
2024-02-08T16:09:59.018Z,5.00
2024-02-08T16:12:38.653Z,4.53
2024-02-08T16:15:08.596Z,4.40
2024-02-08T16:17:59.037Z,7.73
2024-02-08T16:20:31.331Z,8.90
2024-02-08T16:23:07.749Z,7.53
2024-02-08T16:25:46.768Z,10.20
2024-02-08T16:28:21.306Z,9.10
2024-02-08T16:31:07.557Z,8.10
2024-02-08T16:33:43.003Z,6.60
2024-02-08T16:36:34.907Z,6.97
2024-02-08T16:39:29.283Z,7.03
2024-02-08T16:42:01.481Z,6.67
2024-02-08T16:44:36.343Z,6.27
2024-02-08T16:47:11.528Z,6.83
2024-02-08T16:49:43.609Z,6.47
2024-02-08T16:52:20.684Z,6.77
2024-02-08T16:55:01.665Z,8.13
2024-02-08T16:57:32.510Z,6.93
2024-02-08T17:00:22.427Z,6.60
2024-02-08T17:03:05.820Z,7.30
2024-02-08T17:05:50.351Z,7.50
2024-02-08T17:08:21.842Z,7.37
2024-02-08T17:10:57.014Z,8.10
2024-02-08T17:13:36.147Z,8.57
2024-02-08T17:16:26.285Z,8.57
2024-02-08T17:19:19.473Z,8.83
2024-02-08T17:21:56.848Z,8.93
2024-02-08T17:24:30.876Z,9.03
2024-02-08T17:27:03.664Z,9.60
2024-02-08T17:29:36.992Z,9.47
2024-02-08T17:32:13.728Z,8.97
2024-02-08T17:34:41.784Z,8.13
2024-02-08T17:37:14.899Z,5.57
2024-02-08T17:39:42.929Z,5.40
2024-02-08T17:42:11.115Z,3.63
2024-02-08T17:44:42.457Z,4.10
2024-02-08T17:47:14.438Z,4.90
2024-02-08T17:49:42.302Z,5.67
2024-02-08T17:52:10.197Z,4.30
2024-02-08T17:54:47.022Z,4.53
2024-02-08T17:57:24.138Z,4.97
2024-02-08T17:59:59.695Z,2.87
2024-02-08T18:02:29.253Z,2.30
2024-02-08T18:05:02.412Z,2.50
2024-02-08T18:07:31.467Z,1.90
2024-02-08T18:10:17.928Z,2.10
2024-02-08T18:12:52.703Z,1.60
2024-02-08T18:15:25.430Z,2.20
2024-02-08T18:17:57.084Z,2.67
2024-02-08T18:20:30.951Z,2.57
2024-02-08T18:23:03.642Z,2.70
2024-02-08T18:25:32.378Z,3.13
2024-02-08T18:28:04.842Z,2.40
2024-02-08T18:30:34.508Z,2.50
2024-02-08T18:33:06.191Z,3.40
2024-02-08T18:35:35.225Z,3.63
2024-02-08T18:38:06.258Z,2.60
2024-02-08T18:40:37.432Z,2.90
2024-02-08T18:43:06.260Z,2.90
2024-02-08T18:45:38.529Z,3.00
2024-02-08T18:48:12.029Z,3.30
2024-02-08T18:50:43.750Z,2.83
2024-02-08T18:53:13.965Z,4.33
2024-02-08T18:55:46.350Z,3.40
2024-02-08T18:58:15.581Z,3.23
2024-02-08T19:00:47.341Z,4.27
2024-02-08T19:03:17.587Z,3.60
2024-02-08T19:05:49.717Z,3.07
2024-02-08T19:08:20.458Z,3.27
2024-02-08T19:10:52.813Z,2.90
2024-02-08T19:13:27.040Z,3.30
2024-02-08T19:15:57.532Z,1.97
2024-02-08T19:18:33.455Z,2.00
2024-02-08T19:21:01.639Z,2.57
2024-02-08T19:23:29.736Z,2.17
2024-02-08T19:25:59.085Z,2.20
2024-02-08T19:28:27.320Z,2.03
2024-02-08T19:30:56.843Z,2.20
2024-02-08T19:33:26.642Z,2.37
2024-02-08T19:35:56.556Z,2.60
2024-02-08T19:38:27.360Z,2.17
2024-02-08T19:40:56.582Z,2.80
2024-02-08T19:43:27.419Z,2.57
2024-02-08T19:45:55.807Z,2.70
2024-02-08T19:48:26.425Z,2.53
2024-02-08T19:50:56.420Z,2.37
2024-02-08T19:53:29.517Z,2.70
2024-02-08T19:55:57.650Z,2.63
2024-02-08T19:58:29.427Z,2.93
2024-02-08T20:01:00.170Z,2.80
2024-02-08T20:03:28.845Z,3.43
2024-02-08T20:06:00.634Z,3.33
2024-02-08T20:08:30.561Z,3.80
2024-02-08T20:10:58.882Z,3.50
2024-02-08T20:13:31.028Z,4.00
2024-02-08T20:16:00.468Z,4.00
2024-02-08T20:19:04.872Z,3.57
2024-02-08T20:21:57.520Z,4.00
2024-02-08T20:24:44.168Z,4.33
2024-02-08T20:27:24.526Z,4.80
2024-02-08T20:34:06.633Z,5.97
2024-02-08T20:36:28.418Z,6.80
2024-02-08T20:38:59.056Z,7.33
2024-02-08T20:41:27.326Z,8.03
2024-02-08T20:44:07.142Z,7.97
2024-02-08T20:46:40.389Z,9.00
2024-02-08T20:49:10.247Z,9.10
2024-02-08T20:51:38.321Z,8.80
2024-02-08T20:54:09.079Z,9.00
2024-02-08T20:56:40.120Z,8.10
2024-02-08T20:59:11.986Z,8.50
2024-02-08T21:01:40.408Z,8.43
2024-02-08T21:04:09.619Z,8.13
2024-02-08T21:06:43.166Z,7.40
2024-02-08T21:09:24.139Z,20.90
2024-02-08T21:11:52.381Z,7.60
2024-02-08T21:14:22.368Z,7.83
2024-02-08T21:16:56.218Z,8.40
2024-02-08T21:19:26.497Z,8.03
2024-02-08T21:21:59.342Z,8.20
2024-02-08T21:24:31.330Z,8.33
2024-02-08T21:27:02.510Z,8.47
2024-02-08T21:29:38.135Z,8.97
2024-02-08T21:32:18.818Z,8.40
2024-02-08T21:34:47.885Z,8.87
2024-02-08T21:43:28.357Z,10.17
2024-02-08T21:46:11.164Z,9.30
2024-02-08T21:49:16.888Z,9.80
2024-02-08T21:52:31.121Z,8.90
2024-02-08T21:55:55.133Z,9.03
2024-02-08T21:59:31.692Z,9.60
2024-02-08T22:02:10.343Z,9.03
2024-02-08T22:04:39.376Z,9.00
2024-02-08T22:07:07.854Z,9.17
2024-02-08T22:09:42.775Z,8.53
2024-02-08T22:12:15.096Z,8.80
2024-02-08T22:15:02.802Z,7.47
2024-02-08T22:17:53.029Z,7.40
2024-02-08T22:20:51.921Z,8.00
2024-02-08T22:23:52.163Z,7.43
2024-02-08T22:26:23.525Z,7.57
2024-02-08T22:28:53.625Z,8.30
2024-02-08T22:31:27.607Z,7.23
2024-02-08T22:33:58.860Z,8.10
2024-02-08T22:36:26.987Z,8.60
2024-02-08T22:38:56.463Z,8.03
2024-02-08T22:41:25.199Z,7.70
2024-02-08T22:43:53.452Z,7.60
2024-02-08T22:46:23.654Z,7.93
2024-02-08T22:48:51.768Z,7.93
2024-02-08T22:51:21.013Z,8.13
2024-02-08T22:53:48.998Z,8.10
2024-02-08T22:56:17.033Z,7.87
2024-02-08T22:58:45.229Z,7.33
2024-02-08T23:01:35.300Z,7.80
2024-02-08T23:04:03.823Z,7.27
2024-02-08T23:06:36.504Z,7.50
2024-02-08T23:09:09.093Z,7.37
2024-02-08T23:11:38.168Z,7.33
2024-02-08T23:14:10.052Z,7.20
2024-02-08T23:16:38.363Z,7.77
2024-02-08T23:19:07.029Z,7.23
2024-02-08T23:21:36.487Z,7.17
2024-02-08T23:24:08.824Z,7.23
2024-02-08T23:26:37.769Z,7.90
2024-02-08T23:29:06.049Z,7.37
2024-02-08T23:31:34.516Z,7.20
2024-02-08T23:34:05.357Z,7.13
2024-02-08T23:36:34.667Z,7.13
2024-02-08T23:39:08.339Z,6.97
2024-02-08T23:41:37.976Z,6.60
2024-02-08T23:44:06.223Z,6.67
2024-02-08T23:46:34.711Z,6.80
2024-02-08T23:49:02.742Z,7.33
2024-02-08T23:51:30.815Z,7.03
2024-02-08T23:53:58.912Z,6.60
2024-02-08T23:56:28.555Z,6.60
2024-02-08T23:58:56.638Z,6.73
